Time;durP1;ratioP1;P1;durP2;ratioP2;P2;SDS_P1;SDS_P2;PMS_P1;PMS_P2;Temp;Humidity;BMP_temperature;BMP_pressure;BME280_temperature;BME280_humidity;BME280_pressure;Samples;Min_cycle;Max_cycle;Signal;HPM_P1;HPM_P2
2023/07/19 00:00:45;;;;;;;6.63;2.80;;;;;;;15.05;93.68;101433.44;5032301;28;20354;-79
2023/07/19 00:03:10;;;;;;;7.25;2.90;;;;;;;15.02;94.12;101436.22;5032569;28;20029;-80
2023/07/19 00:05:35;;;;;;;7.55;2.95;;;;;;;15.05;94.48;101425.63;5032247;28;20051;-80
2023/07/19 00:08:04;;;;;;;5.20;2.63;;;;;;;15.00;94.45;101421.69;5014527;28;20045;-79
2023/07/19 00:10:30;;;;;;;7.47;2.75;;;;;;;14.90;94.74;101429.31;5032116;28;20090;-79
2023/07/19 00:12:55;;;;;;;5.57;2.90;;;;;;;14.79;95.03;101401.47;5032594;28;20096;-80
2023/07/19 00:15:21;;;;;;;5.28;3.03;;;;;;;14.84;95.06;101408.94;5014876;28;20493;-79
2023/07/19 00:17:46;;;;;;;5.45;2.92;;;;;;;14.80;95.33;101405.75;5030220;23;20046;-80
2023/07/19 00:20:12;;;;;;;6.38;2.85;;;;;;;14.44;95.74;101356.31;4994211;28;20052;-80
2023/07/19 00:22:38;;;;;;;5.90;3.08;;;;;;;14.70;96.22;101412.53;5012544;28;20030;-80
2023/07/19 00:25:04;;;;;;;4.28;2.60;;;;;;;14.56;96.11;101392.72;5012458;28;20030;-79
2023/07/19 00:27:29;;;;;;;7.25;2.88;;;;;;;14.52;96.77;101385.25;5012275;28;20406;-79
2023/07/19 00:29:55;;;;;;;5.63;3.08;;;;;;;14.28;96.24;101347.03;5012193;28;20085;-78
2023/07/19 00:32:21;;;;;;;7.78;3.13;;;;;;;14.62;97.15;101399.25;5012405;28;20050;-78
2023/07/19 00:34:47;;;;;;;5.05;3.03;;;;;;;14.45;97.15;101363.22;5012291;28;20034;-79
2023/07/19 00:37:12;;;;;;;8.35;3.13;;;;;;;14.50;97.17;101382.75;5012553;28;20037;-79
2023/07/19 00:39:37;;;;;;;5.78;3.00;;;;;;;14.52;97.08;101386.06;5012416;28;20054;-78
2023/07/19 00:42:03;;;;;;;6.43;2.90;;;;;;;14.49;97.55;101382.88;5012100;28;20017;-79
2023/07/19 00:44:28;;;;;;;6.55;3.20;;;;;;;14.37;97.78;101375.91;5012234;28;20062;-78
2023/07/19 00:46:54;;;;;;;8.18;3.10;;;;;;;14.25;97.91;101352.41;5012283;28;20033;-80
2023/07/19 00:49:19;;;;;;;5.85;3.22;;;;;;;14.22;98.06;101344.84;5012309;28;20432;-77
2023/07/19 00:51:45;;;;;;;4.78;3.05;;;;;;;14.24;98.43;101355.13;5015611;28;20053;-78
2023/07/19 00:54:10;;;;;;;6.97;3.03;;;;;;;14.29;98.75;101363.44;5015721;28;20049;-80
2023/07/19 00:56:36;;;;;;;5.32;3.17;;;;;;;14.17;98.82;101353.91;5015805;28;20033;-78
2023/07/19 00:59:02;;;;;;;4.88;2.90;;;;;;;14.24;99.20;101376.75;5015803;28;20393;-79
2023/07/19 01:01:28;;;;;;;6.10;2.97;;;;;;;14.20;99.25;101364.09;5015677;28;20037;-79
2023/07/19 01:03:53;;;;;;;5.60;3.30;;;;;;;13.97;99.88;101324.13;5015792;28;20026;-77
2023/07/19 01:06:19;;;;;;;5.68;3.10;;;;;;;14.15;99.70;101361.78;5015652;28;20476;-80
2023/07/19 01:08:46;;;;;;;4.97;3.15;;;;;;;14.17;99.86;101366.91;5015493;28;20034;-77
2023/07/19 01:11:12;;;;;;;6.80;3.58;;;;;;;14.16;99.64;101362.63;5015439;28;20025;-78
2023/07/19 01:13:37;;;;;;;4.72;3.25;;;;;;;14.17;99.58;101367.72;5015503;28;20032;-79
2023/07/19 01:16:03;;;;;;;6.97;3.78;;;;;;;14.17;99.57;101365.13;5014042;28;20482;-78
2023/07/19 01:18:28;;;;;;;6.65;3.88;;;;;;;14.20;99.81;101369.28;5015123;28;20050;-79
2023/07/19 01:20:54;;;;;;;6.97;3.70;;;;;;;14.16;99.91;101349.63;5015299;28;20048;-79
2023/07/19 01:23:19;;;;;;;6.30;3.92;;;;;;;14.15;99.88;101350.56;5014893;28;20488;-79
2023/07/19 01:25:44;;;;;;;6.20;3.90;;;;;;;14.18;99.92;101352.97;5015342;28;20030;-79
2023/07/19 01:28:10;;;;;;;8.20;4.35;;;;;;;14.01;99.58;101320.38;5015095;28;20021;-80
2023/07/19 01:30:35;;;;;;;7.65;4.20;;;;;;;14.07;99.88;101333.78;5015124;28;20026;-78
2023/07/19 01:33:01;;;;;;;7.22;4.20;;;;;;;14.03;100.00;101329.72;5015072;28;20049;-78
2023/07/19 01:35:26;;;;;;;7.32;3.97;;;;;;;14.24;99.61;101355.97;5015175;28;20476;-81
2023/07/19 01:37:52;;;;;;;7.28;4.72;;;;;;;14.20;99.73;101348.50;5015089;28;20052;-80
2023/07/19 01:40:17;;;;;;;7.90;4.40;;;;;;;14.27;99.62;101347.13;5015301;28;20056;-79
2023/07/19 01:42:43;;;;;;;8.63;4.15;;;;;;;14.25;99.20;101346.41;5015053;28;20528;-80
2023/07/19 01:45:08;;;;;;;7.35;4.28;;;;;;;14.22;99.33;101347.44;5015010;28;20061;-80
2023/07/19 01:47:34;;;;;;;8.73;4.10;;;;;;;14.20;99.64;101348.50;5014635;28;20056;-79
2023/07/19 01:50:00;;;;;;;5.90;3.78;;;;;;;14.17;99.77;101349.56;5014885;28;20029;-80
2023/07/19 01:52:26;;;;;;;7.75;3.80;;;;;;;14.16;100.00;101357.44;5014597;28;20026;-80
2023/07/19 01:54:51;;;;;;;6.93;4.20;;;;;;;14.04;100.00;101333.13;5014638;28;20022;-80
2023/07/19 01:57:16;;;;;;;8.55;4.28;;;;;;;14.04;100.00;101323.56;5014634;28;20024;-79
2023/07/19 01:59:42;;;;;;;5.40;3.53;;;;;;;14.16;100.00;101342.69;5014606;28;20030;-80
2023/07/19 02:02:07;;;;;;;9.07;4.10;;;;;;;14.15;100.00;101351.41;5014018;28;20029;-80
2023/07/19 02:04:33;;;;;;;6.97;4.18;;;;;;;14.14;100.00;101343.72;5014349;28;20049;-79
2023/07/19 02:06:58;;;;;;;7.78;4.25;;;;;;;14.12;100.00;101341.22;4996552;28;20064;-79
2023/07/19 02:09:23;;;;;;;7.75;4.07;;;;;;;14.11;100.00;101344.78;5014226;28;20430;-79
2023/07/19 02:11:49;;;;;;;8.57;4.00;;;;;;;14.11;100.00;101349.13;5014536;28;20038;-79
2023/07/19 02:14:14;;;;;;;6.75;4.00;;;;;;;14.10;100.00;101345.72;5014456;28;20033;-80
2023/07/19 02:16:40;;;;;;;5.72;3.90;;;;;;;13.85;100.00;101293.81;5014252;28;20092;-80
2023/07/19 02:19:07;;;;;;;6.50;4.18;;;;;;;14.11;100.00;101330.97;5014031;28;20060;-79
2023/07/19 02:21:33;;;;;;;6.10;3.83;;;;;;;14.10;100.00;101326.69;5014137;28;20157;-80
2023/07/19 02:23:58;;;;;;;7.97;4.18;;;;;;;13.93;100.00;101307.91;5014142;28;20108;-79
2023/07/19 02:26:25;;;;;;;9.50;4.35;;;;;;;14.09;100.00;101320.69;5014035;28;20081;-80
2023/07/19 02:28:50;;;;;;;7.40;3.67;;;;;;;13.99;100.00;101301.47;4996328;28;20113;-79
2023/07/19 02:31:16;;;;;;;6.93;4.00;;;;;;;13.98;100.00;101311.03;5014341;28;20053;-80
2023/07/19 02:33:41;;;;;;;7.65;3.75;;;;;;;14.09;100.00;101325.88;5014042;28;20044;-80
2023/07/19 02:36:08;;;;;;;7.18;4.03;;;;;;;14.00;100.00;101332.53;5013913;28;20092;-79
2023/07/19 02:38:33;;;;;;;6.90;3.78;;;;;;;14.09;100.00;101328.47;5014009;28;20104;-79
2023/07/19 02:41:00;;;;;;;6.43;3.47;;;;;;;13.66;100.00;101268.28;5013825;28;20117;-80
2023/07/19 02:43:26;;;;;;;5.10;3.33;;;;;;;14.01;100.00;101331.59;5013855;28;20033;-80
2023/07/19 02:45:53;;;;;;;8.05;3.78;;;;;;;14.04;100.00;101327.94;5013745;28;20033;-79
2023/07/19 02:48:19;;;;;;;5.38;3.58;;;;;;;14.04;100.00;101327.94;4996423;28;20029;-79
2023/07/19 02:50:48;;;;;;;7.22;3.65;;;;;;;13.87;100.00;101300.56;5013759;28;20026;-80
2023/07/19 02:53:14;;;;;;;5.22;3.08;;;;;;;14.06;100.00;101333.88;5013737;28;20029;-79
2023/07/19 02:55:42;;;;;;;8.98;3.42;;;;;;;14.06;100.00;101326.09;5013388;28;20041;-78
2023/07/19 02:58:07;;;;;;;6.32;3.00;;;;;;;14.06;100.00;101320.91;5013535;28;20032;-78
2023/07/19 03:00:32;;;;;;;5.70;3.40;;;;;;;14.21;100.00;101339.75;5013460;28;20465;-79
2023/07/19 03:02:58;;;;;;;8.63;3.47;;;;;;;14.31;100.00;101332.97;4995437;28;20092;-79
2023/07/19 03:05:23;;;;;;;5.65;3.15;;;;;;;14.27;100.00;101319.41;5013572;28;20021;-79
2023/07/19 03:07:49;;;;;;;4.90;2.88;;;;;;;14.26;100.00;101319.50;5013394;28;20028;-78
2023/07/19 03:10:15;;;;;;;5.88;3.30;;;;;;;14.23;100.00;101317.94;5013366;28;20520;-77
2023/07/19 03:12:41;;;;;;;5.68;3.20;;;;;;;14.31;100.00;101327.78;4995418;28;20030;-78
2023/07/19 03:15:07;;;;;;;6.65;3.33;;;;;;;14.23;100.00;101315.34;5012352;28;20058;-80
2023/07/19 03:17:32;;;;;;;7.82;3.53;;;;;;;14.30;100.00;101333.94;5012913;28;20084;-79
2023/07/19 03:19:58;;;;;;;9.40;3.55;;;;;;;14.30;100.00;101334.75;5013301;28;20061;-79
2023/07/19 03:22:23;;;;;;;7.53;3.92;;;;;;;14.27;100.00;101332.38;5013158;28;20034;-80
2023/07/19 03:24:48;;;;;;;9.50;3.58;;;;;;;14.33;100.00;101336.31;5013245;28;20029;-79
2023/07/19 03:27:14;;;;;;;4.72;3.22;;;;;;;14.31;100.00;101325.19;5013123;28;20072;-79
2023/07/19 03:29:39;;;;;;;6.03;3.67;;;;;;;14.31;100.00;101322.59;5012952;28;20022;-79
2023/07/19 03:32:05;;;;;;;7.53;3.63;;;;;;;14.40;100.00;101342.72;4994928;28;20405;-79
2023/07/19 03:47:58;;;;;;;7.95;4.38;;;;;;;13.41;100.00;101167.97;5032988;28;20095;-80
2023/07/19 03:51:00;;;;;;;6.55;3.75;;;;;;;14.54;100.00;101347.78;5031197;28;20033;-81
2023/07/19 03:53:25;;;;;;;;;;;;;;;14.59;100.00;101350.91;5093251;23;20053;-80
2023/07/19 03:56:00;;;;;;;8.30;4.95;;;;;;;14.10;100.00;101273.00;5027088;23;19928;-80
2023/07/19 03:58:27;;;;;;;8.73;5.88;;;;;;;13.72;100.00;101195.19;5012752;28;20042;-80
2023/07/19 04:00:53;;;;;;;10.40;6.00;;;;;;;14.62;100.00;101339.47;5012569;28;20369;-80
2023/07/19 04:03:27;;;;;;;9.45;5.97;;;;;;;14.66;100.00;101340.91;5012917;28;20018;-80
2023/07/19 04:05:54;;;;;;;10.98;6.68;;;;;;;14.47;100.00;101315.41;5012766;28;20022;-80
2023/07/19 04:08:20;;;;;;;10.38;6.40;;;;;;;14.60;100.00;101325.75;5012762;28;20029;-80
2023/07/19 04:10:46;;;;;;;11.65;6.90;;;;;;;14.71;100.00;101348.38;5012634;28;20267;-80
2023/07/19 04:13:13;;;;;;;9.35;6.60;;;;;;;14.59;100.00;101317.13;5012520;28;20026;-80
2023/07/19 04:15:39;;;;;;;9.07;6.70;;;;;;;14.77;100.00;101340.13;5012499;28;20026;-80
2023/07/19 04:18:04;;;;;;;9.32;6.32;;;;;;;14.50;100.00;101289.19;5012626;28;20540;-80
2023/07/19 04:20:30;;;;;;;7.78;6.03;;;;;;;14.66;100.00;101306.28;5012654;28;20033;-80
2023/07/19 04:22:56;;;;;;;9.25;5.97;;;;;;;14.72;100.00;101303.22;5012818;28;20030;-80
2023/07/19 04:25:24;;;;;;;11.00;5.88;;;;;;;14.97;100.00;101336.09;5014300;28;20049;-79
2023/07/19 04:27:50;;;;;;;9.02;5.82;;;;;;;14.97;100.00;101333.47;5016286;28;20045;-80
2023/07/19 04:30:16;;;;;;;10.98;6.30;;;;;;;14.74;100.00;101296.97;5016218;28;20469;-79
2023/07/19 04:32:41;;;;;;;13.38;5.93;;;;;;;15.06;100.00;101328.44;5014701;28;20045;-80
2023/07/19 04:35:07;;;;;;;9.18;5.35;;;;;;;15.06;100.00;101320.63;5016568;28;20551;-80
2023/07/19 04:37:32;;;;;;;10.13;6.05;;;;;;;14.85;100.00;101284.03;5016492;28;20022;-80
2023/07/19 04:39:58;;;;;;;11.40;5.78;;;;;;;15.25;100.00;101334.88;5016046;28;20057;-80
2023/07/19 04:42:24;;;;;;;10.20;5.72;;;;;;;15.34;99.85;101344.56;5016355;28;20029;-81
2023/07/19 04:44:49;;;;;;;11.85;5.38;;;;;;;15.20;98.59;101314.41;5015789;28;20022;-81
2023/07/19 04:47:20;;;;;;;10.55;5.47;;;;;;;15.33;97.52;101327.31;5016165;28;20117;-81
2023/07/19 04:49:45;;;;;;;9.82;5.25;;;;;;;15.45;97.50;101331.63;5016259;28;20037;-81
2023/07/19 04:52:10;;;;;;;14.55;6.30;;;;;;;15.30;96.76;101306.72;5015915;28;20377;-80
2023/07/19 04:54:36;;;;;;;10.35;5.65;;;;;;;15.28;96.54;101293.00;5016126;28;20022;-80
2023/07/19 04:57:01;;;;;;;8.77;5.13;;;;;;;15.44;95.71;101320.38;5015827;28;20033;-82
2023/07/19 04:59:27;;;;;;;12.45;5.85;;;;;;;15.28;95.56;101291.25;4998402;28;20053;-80
2023/07/19 05:01:52;;;;;;;12.90;5.30;;;;;;;15.59;95.40;101351.38;5015371;28;20029;-80
2023/07/19 05:04:18;;;;;;;8.70;5.82;;;;;;;15.72;94.60;101354.72;5015955;28;20033;-78
2023/07/19 05:06:43;;;;;;;8.52;5.65;;;;;;;15.85;94.29;101362.47;5015498;28;20101;-78
2023/07/19 05:09:09;;;;;;;8.85;5.07;;;;;;;15.85;94.56;101333.81;5015692;28;20037;-80
2023/07/19 05:11:34;;;;;;;9.30;5.28;;;;;;;16.13;93.49;101363.78;5015621;28;20061;-79
2023/07/19 05:14:00;;;;;;;11.55;5.72;;;;;;;16.25;92.37;101357.59;5015625;28;20390;-80
2023/07/19 05:16:28;;;;;;;12.20;5.50;;;;;;;16.35;91.70;101361.13;4997678;28;20458;-80
2023/07/19 05:18:53;;;;;;;12.27;5.82;;;;;;;16.39;90.36;101340.84;5015506;28;20026;-81
2023/07/19 05:21:21;;;;;;;9.32;5.50;;;;;;;16.61;89.32;101356.44;5015334;28;20026;-81
2023/07/19 05:23:50;;;;;;;11.10;5.38;;;;;;;16.54;88.02;101332.66;5015396;28;20050;-80
2023/07/19 05:26:28;;;;;;;8.30;4.32;;;;;;;16.10;88.03;101194.66;5015542;28;20105;-79
2023/07/19 05:28:59;;;;;;;6.10;3.88;;;;;;;17.65;85.95;101358.38;5014928;28;20040;-80
2023/07/19 05:31:25;;;;;;;7.10;4.30;;;;;;;17.94;83.61;101358.53;5015135;28;20040;-79
2023/07/19 05:33:50;;;;;;;5.22;2.90;;;;;;;18.20;82.31;101358.91;5014996;28;20033;-79
2023/07/19 05:36:15;;;;;;;9.13;4.22;;;;;;;18.25;81.62;101351.50;5014479;28;20029;-79
2023/07/19 05:38:41;;;;;;;6.93;3.17;;;;;;;18.50;81.10;101360.66;5014942;28;20033;-80
2023/07/19 05:41:06;;;;;;;18.77;3.85;;;;;;;18.68;79.28;101358.19;5015126;28;20033;-79
2023/07/19 05:43:33;;;;;;;7.25;4.18;;;;;;;18.58;77.26;101325.00;5015037;28;20022;-80
2023/07/19 05:46:05;;;;;;;7.05;3.85;;;;;;;18.91;77.18;101351.75;5014862;28;20040;-79
2023/07/19 05:48:31;;;;;;;7.20;3.85;;;;;;;19.13;76.36;101354.09;5014804;28;20030;-80
2023/07/19 05:50:56;;;;;;;7.10;4.60;;;;;;;19.25;75.45;101354.75;5015057;28;20052;-80
2023/07/19 05:53:21;;;;;;;7.32;3.88;;;;;;;19.46;75.46;101351.97;5014859;28;20026;-79
2023/07/19 05:55:46;;;;;;;7.95;3.65;;;;;;;19.55;73.94;101356.34;5014956;28;20521;-80
2023/07/19 05:58:12;;;;;;;9.32;4.93;;;;;;;19.40;73.73;101347.31;5014661;28;20209;-78
2023/07/19 06:00:40;;;;;;;7.50;4.05;;;;;;;19.45;73.31;101361.59;5014573;28;20029;-79
2023/07/19 06:03:05;;;;;;;7.30;4.50;;;;;;;19.41;73.45;101357.63;5002816;28;20084;-76
2023/07/19 06:05:31;;;;;;;5.72;2.97;;;;;;;19.11;73.78;101305.47;4995752;28;20030;-76
2023/07/19 06:07:56;;;;;;;7.82;4.18;;;;;;;19.48;73.60;101352.66;4977087;28;20551;-80
2023/07/19 06:10:21;;;;;;;6.53;4.25;;;;;;;19.55;73.18;101356.34;4977075;28;20053;-80
2023/07/19 06:12:47;;;;;;;8.32;4.60;;;;;;;19.59;72.58;101357.75;4994942;28;20022;-80
2023/07/19 06:15:12;;;;;;;9.85;4.78;;;;;;;19.69;72.33;101342.84;4994896;28;20027;-77
2023/07/19 06:17:50;;;;;;;8.30;5.22;;;;;;;18.82;72.08;101174.66;5261961;23;20141;-79
2023/07/19 06:21:11;;;;;;;9.45;4.70;;;;;;;20.10;71.50;101353.03;5034150;28;20480;-79
2023/07/19 06:24:17;;;;;;;7.18;3.55;;;;;;;20.41;70.51;101353.53;5033680;28;20056;-79
2023/07/19 06:30:14;;;;;;;6.75;3.92;;;;;;;20.83;67.11;101298.69;5033698;28;20033;-81
2023/07/19 06:32:43;;;;;;;9.93;4.30;;;;;;;20.29;66.05;101206.03;5033587;28;20040;-75
2023/07/19 06:35:09;;;;;;;7.53;4.05;;;;;;;21.76;63.84;101349.75;5015237;28;20033;-78
2023/07/19 06:37:34;;;;;;;8.35;4.95;;;;;;;23.32;58.79;101334.13;5033213;23;20476;-81
2023/07/19 06:40:03;;;;;;;8.00;4.03;;;;;;;24.95;53.44;101356.28;5013683;28;20026;-80
2023/07/19 06:42:29;;;;;;;7.53;4.13;;;;;;;25.62;50.54;101345.75;5013861;28;20465;-80
2023/07/19 06:44:56;;;;;;;6.43;4.00;;;;;;;25.50;50.10;101355.16;5014325;28;20068;-80
2023/07/19 06:47:21;;;;;;;7.50;3.78;;;;;;;26.22;47.63;101313.75;5013770;28;20022;-81
2023/07/19 06:49:47;;;;;;;6.35;3.85;;;;;;;27.92;44.60;101348.94;5014026;28;20036;-80
2023/07/19 06:52:12;;;;;;;7.65;3.10;;;;;;;29.41;41.05;101330.97;5013512;28;20100;-80
2023/07/19 06:54:37;;;;;;;7.60;4.00;;;;;;;29.26;40.07;101338.34;5013617;28;20121;-80
2023/07/19 06:57:03;;;;;;;9.63;3.13;;;;;;;28.02;41.89;101298.13;5013754;28;20033;-80
2023/07/19 06:59:28;;;;;;;9.63;3.60;;;;;;;27.04;43.57;101342.50;5013403;28;20026;-77
2023/07/19 07:01:54;;;;;;;6.00;2.92;;;;;;;26.28;46.61;101341.31;5013376;28;20504;-79
2023/07/19 07:04:19;;;;;;;9.25;3.55;;;;;;;26.53;46.42;101324.06;5013665;28;20112;-79
2023/07/19 07:06:45;;;;;;;6.85;3.05;;;;;;;26.74;45.10;101306.53;4995753;28;20068;-80
2023/07/19 07:09:14;;;;;;;8.30;3.90;;;;;;;26.30;46.13;101326.88;5013535;28;20062;-79
2023/07/19 07:11:39;;;;;;;9.88;4.95;;;;;;;25.86;47.86;101347.31;5013508;28;20022;-77
2023/07/19 07:14:08;;;;;;;10.05;5.07;;;;;;;25.26;49.38;101345.63;5028524;28;20029;-80
2023/07/19 07:16:34;;;;;;;15.23;9.82;;;;;;;24.81;50.71;101348.16;4995766;28;20384;-75
2023/07/19 07:18:59;;;;;;;8.48;4.30;;;;;;;24.16;51.27;101343.25;5012776;28;20061;-74
2023/07/19 07:21:26;;;;;;;9.48;5.97;;;;;;;23.73;53.92;101352.50;5013387;28;20036;-76
2023/07/19 07:23:51;;;;;;;8.98;5.05;;;;;;;23.21;54.91;101342.38;5013243;28;20026;-76
2023/07/19 07:26:16;;;;;;;9.20;5.28;;;;;;;22.97;56.35;101350.28;5013240;28;20038;-80
2023/07/19 07:28:44;;;;;;;9.43;5.03;;;;;;;22.84;57.74;101348.16;5013185;28;20492;-80
2023/07/19 07:31:11;;;;;;;10.40;4.93;;;;;;;22.66;58.70;101335.09;5013185;28;20030;-80
2023/07/19 07:33:37;;;;;;;8.95;4.78;;;;;;;22.49;58.36;101349.19;4998807;28;20069;-81
2023/07/19 07:36:02;;;;;;;10.93;4.75;;;;;;;22.28;58.40;101315.44;4994116;28;20402;-80
2023/07/19 07:38:27;;;;;;;9.90;4.30;;;;;;;22.34;59.58;101343.75;4993068;28;20050;-81
2023/07/19 07:41:06;;;;;;;8.60;4.20;;;;;;;22.02;59.75;101279.53;4993203;28;20030;-82
2023/07/19 07:43:32;;;;;;;9.60;3.70;;;;;;;21.87;59.43;101256.63;4993764;28;20030;-80
2023/07/19 07:45:58;;;;;;;9.48;4.30;;;;;;;22.31;58.70;101323.00;4994068;28;20098;-80
2023/07/19 07:48:25;;;;;;;7.50;3.90;;;;;;;22.07;58.17;101305.38;4975999;28;20042;-79
2023/07/19 07:50:53;;;;;;;7.35;3.85;;;;;;;21.97;58.95;101289.69;4993551;28;20041;-79
2023/07/19 07:53:19;;;;;;;9.13;3.60;;;;;;;22.32;59.69;101337.84;4993438;28;20015;-79
2023/07/19 07:55:50;;;;;;;10.90;4.15;;;;;;;22.25;58.81;101335.00;4993102;28;20040;-79
2023/07/19 07:58:16;;;;;;;8.60;3.72;;;;;;;22.27;59.33;101334.84;4993229;28;20022;-80
2023/07/19 08:00:42;;;;;;;8.10;3.30;;;;;;;22.33;59.62;101339.47;4996054;28;20037;-79
2023/07/19 08:03:14;;;;;;;6.38;2.80;;;;;;;22.40;59.92;101350.16;4997400;28;20034;-78
2023/07/19 08:05:40;;;;;;;6.90;2.80;;;;;;;22.39;60.18;101338.81;4997193;28;20058;-78
2023/07/19 08:08:06;;;;;;;8.07;2.90;;;;;;;22.49;59.21;101339.50;4997349;28;20493;-79
2023/07/19 08:10:32;;;;;;;7.78;3.05;;;;;;;22.63;58.43;101327.53;4997353;28;20030;-79
2023/07/19 08:12:58;;;;;;;7.10;2.80;;;;;;;22.95;57.76;101328.56;4997336;28;20022;-79
2023/07/19 08:15:24;;;;;;;8.23;2.88;;;;;;;23.27;56.44;101341.69;4997235;28;20113;-80
2023/07/19 08:17:49;;;;;;;6.82;2.75;;;;;;;23.48;55.67;101325.34;4997365;28;20026;-79
2023/07/19 08:20:17;;;;;;;8.88;2.97;;;;;;;23.55;55.75;101305.22;4996947;28;20105;-80
2023/07/19 08:22:43;;;;;;;8.88;2.90;;;;;;;23.71;54.19;101314.94;4996050;28;20109;-78
2023/07/19 08:25:08;;;;;;;7.25;2.47;;;;;;;23.68;54.71;101294.97;4997573;28;20118;-76
2023/07/19 08:27:34;;;;;;;7.53;2.97;;;;;;;23.65;52.90;101311.16;4996850;28;20045;-76
2023/07/19 08:30:00;;;;;;;7.18;2.70;;;;;;;23.59;54.30;101297.81;4996864;28;20027;-78
2023/07/19 08:32:26;;;;;;;11.63;2.85;;;;;;;23.48;54.34;101301.63;4996899;28;20382;-77
2023/07/19 08:45:18;;;;;;;7.65;2.60;;;;;;;23.88;52.63;101327.03;4994365;28;20065;-80
2023/07/19 08:47:53;;;;;;;9.50;3.60;;;;;;;23.40;54.18;101318.28;4994132;28;20050;-79
2023/07/19 08:50:28;;;;;;;7.97;3.72;;;;;;;22.46;55.01;101196.91;4994147;28;20510;-77
2023/07/19 08:53:02;;;;;;;7.82;3.88;;;;;;;23.39;56.10;101323.72;4993991;28;20122;-77
2023/07/19 08:55:31;;;;;;;7.75;3.55;;;;;;;22.55;55.52;101182.75;4993341;28;20057;-77
2023/07/19 08:58:40;;;;;;;7.55;3.25;;;;;;;23.59;55.71;101316.28;4994099;28;20057;-80
2023/07/19 09:04:27;;;;;;;7.80;3.90;;;;;;;23.30;55.78;101253.56;4993897;28;20037;-82
2023/07/19 09:06:52;;;;;;;7.28;3.75;;;;;;;24.01;54.48;101319.41;4978096;28;20039;-79
2023/07/19 09:09:17;;;;;;;6.55;3.38;;;;;;;24.17;54.14;101315.84;4993917;28;20031;-80
2023/07/19 09:11:51;;;;;;;9.25;3.38;;;;;;;23.94;53.97;101272.78;4993857;28;20073;-79
2023/07/19 09:14:17;;;;;;;6.45;3.20;;;;;;;23.97;53.39;101307.56;5001761;28;20452;-79
2023/07/19 09:16:45;;;;;;;8.27;3.28;;;;;;;23.84;54.18;101285.38;5035261;28;20037;-84
2023/07/19 09:19:10;;;;;;;9.65;3.13;;;;;;;23.84;53.77;101280.09;5035118;28;20033;-80
2023/07/19 09:21:37;;;;;;;6.72;3.08;;;;;;;24.19;53.66;101315.72;5035142;28;20473;-77
2023/07/19 09:24:04;;;;;;;8.15;3.38;;;;;;;24.10;54.49;101300.91;5035186;28;20030;-79
2023/07/19 09:26:44;;;;;;;8.93;2.92;;;;;;;24.40;53.59;101317.75;5034880;28;20025;-79
2023/07/19 09:29:09;;;;;;;6.13;2.70;;;;;;;24.09;53.41;101317.72;5034985;28;20022;-81
2023/07/19 09:31:53;;;;;;;6.82;2.92;;;;;;;24.00;54.09;101317.78;5035094;28;20083;-78
2023/07/19 09:34:25;;;;;;;5.43;2.47;;;;;;;23.95;54.60;101321.91;5034658;28;20025;-78
2023/07/19 09:36:51;;;;;;;8.45;3.20;;;;;;;23.60;54.98;101284.50;5034964;28;20057;-79
2023/07/19 09:39:17;;;;;;;7.25;3.00;;;;;;;23.58;55.32;101325.16;5034975;28;20439;-79
2023/07/19 09:41:45;;;;;;;8.20;2.83;;;;;;;23.24;56.75;101320.94;5034793;28;20041;-78
2023/07/19 09:44:13;;;;;;;7.57;2.50;;;;;;;22.94;57.75;101330.38;5034515;28;20108;-77
2023/07/19 09:46:39;;;;;;;6.50;2.58;;;;;;;22.42;58.18;101283.25;5033259;28;20072;-78
2023/07/19 09:49:05;;;;;;;6.90;2.60;;;;;;;22.75;58.54;101320.94;5034695;28;20025;-80
2023/07/19 09:51:32;;;;;;;6.43;2.67;;;;;;;22.81;57.92;101299.25;5014887;28;20018;-78
2023/07/19 09:54:04;;;;;;;6.20;2.47;;;;;;;23.13;58.46;101321.31;5035588;28;20084;-78
2023/07/19 09:56:29;;;;;;;7.57;2.70;;;;;;;23.31;57.33;101311.41;5017084;28;20057;-77
2023/07/19 09:58:55;;;;;;;5.07;1.95;;;;;;;23.21;57.61;101263.31;5034546;28;20053;-83
2023/07/19 10:01:22;;;;;;;5.85;2.30;;;;;;;23.23;55.24;101292.13;5034346;28;20025;-79
2023/07/19 10:03:47;;;;;;;7.97;2.25;;;;;;;23.43;54.75;101311.84;5034310;28;20536;-78
2023/07/19 10:06:23;;;;;;;5.07;2.13;;;;;;;23.69;53.57;101307.16;5034075;28;20029;-80
2023/07/19 10:08:48;;;;;;;6.10;1.83;;;;;;;23.95;54.17;101306.91;5034523;28;20045;-80
2023/07/19 10:11:23;;;;;;;4.30;1.80;;;;;;;23.93;53.17;101314.19;5034236;28;20064;-79
2023/07/19 10:13:58;;;;;;;5.93;2.10;;;;;;;23.90;53.74;101306.63;5034233;28;20104;-77
2023/07/19 10:16:33;;;;;;;4.38;2.08;;;;;;;24.11;51.87;101303.38;5034053;28;20025;-77
2023/07/19 10:19:12;;;;;;;5.10;2.05;;;;;;;24.12;51.03;101312.94;5033876;28;20026;-78
2023/07/19 10:21:38;;;;;;;5.57;1.80;;;;;;;23.84;49.52;101288.00;5016306;28;20485;-77
2023/07/19 10:24:06;;;;;;;4.60;1.70;;;;;;;24.00;50.64;101319.59;5033380;28;20025;-80
2023/07/19 10:26:35;;;;;;;4.45;1.70;;;;;;;23.80;49.23;101295.44;5033971;28;20428;-80
2023/07/19 10:29:01;;;;;;;6.20;2.00;;;;;;;23.83;49.09;101286.38;5015819;28;20452;-80
2023/07/19 10:31:26;;;;;;;4.85;1.90;;;;;;;24.17;48.56;101307.94;5033704;28;20064;-80
2023/07/19 10:34:04;;;;;;;4.40;1.83;;;;;;;24.31;49.08;101316.97;5016358;28;20068;-80
2023/07/19 10:36:32;;;;;;;6.57;1.73;;;;;;;24.50;48.33;101305.16;5033654;28;20086;-81
2023/07/19 10:38:58;;;;;;;4.57;1.60;;;;;;;24.77;47.29;101319.59;5016015;28;20018;-82
2023/07/19 10:41:23;;;;;;;7.88;2.00;;;;;;;24.73;47.08;101299.84;5015729;28;20053;-81
2023/07/19 10:43:48;;;;;;;7.57;2.10;;;;;;;24.69;47.47;101275.63;5033475;28;20136;-82
2023/07/19 10:46:14;;;;;;;3.78;1.45;;;;;;;25.16;46.19;101319.47;5033453;28;20120;-81
2023/07/19 10:48:39;;;;;;;5.80;1.77;;;;;;;25.11;46.13;101304.16;5033370;28;20028;-82
2023/07/19 10:51:08;;;;;;;5.38;1.50;;;;;;;24.86;45.94;101285.03;5033760;28;20040;-81
2023/07/19 10:53:47;;;;;;;6.97;1.70;;;;;;;24.80;47.36;101317.44;5033516;28;20026;-80
2023/07/19 10:56:14;;;;;;;6.93;2.08;;;;;;;24.57;48.70;101313.97;5033520;28;20025;-82
2023/07/19 10:58:40;;;;;;;4.97;1.77;;;;;;;24.54;48.05;101309.88;5015483;28;20103;-81
2023/07/19 11:01:06;;;;;;;5.20;1.70;;;;;;;24.60;47.79;101314.47;5033518;28;20069;-81
2023/07/19 11:03:32;;;;;;;4.88;1.60;;;;;;;24.57;47.95;101304.25;5033421;28;20521;-80
2023/07/19 11:09:50;;;;;;;4.32;1.67;;;;;;;23.58;48.03;101153.78;4972199;28;20235;-80
2023/07/19 11:22:45;;;;;;;6.28;1.73;;;;;;;22.56;55.75;101140.47;5042915;23;20061;-81
2023/07/19 11:25:16;;;;;;;4.30;1.92;;;;;;;22.85;55.50;101147.00;4993360;28;20022;-80
2023/07/19 11:27:49;;;;;;;5.78;2.00;;;;;;;23.72;54.92;101262.03;4993621;28;20434;-81
2023/07/19 11:30:23;;;;;;;7.65;1.90;;;;;;;24.41;54.22;101299.09;5091042;23;20049;-81
2023/07/19 11:33:05;;;;;;;4.82;1.55;;;;;;;24.15;53.22;101172.72;5072831;28;20032;-80
2023/07/19 11:35:52;;;;;;;7.55;2.25;;;;;;;24.06;51.32;101131.56;5070722;28;20074;-82
2023/07/19 11:38:18;;;;;;;4.20;1.70;;;;;;;25.43;50.28;101296.88;5030113;28;20042;-83
2023/07/19 11:40:44;;;;;;;5.90;1.70;;;;;;;25.60;48.04;101286.94;5030344;28;20374;-80
2023/07/19 11:43:09;;;;;;;5.55;1.80;;;;;;;25.28;47.40;101238.72;5030588;28;20486;-80
2023/07/19 11:45:34;;;;;;;3.60;1.60;;;;;;;25.42;47.43;101293.41;5030964;28;20042;-80
2023/07/19 11:48:01;;;;;;;3.50;1.63;;;;;;;25.41;44.66;101301.53;5030694;28;20091;-79
2023/07/19 11:50:28;;;;;;;5.35;1.63;;;;;;;25.39;45.11;101293.78;5029559;28;20033;-79
2023/07/19 11:53:01;;;;;;;4.40;1.38;;;;;;;25.07;45.34;101272.97;5030577;28;20040;-81
2023/07/19 11:55:28;;;;;;;5.18;1.50;;;;;;;24.85;45.90;101286.03;5030036;28;20037;-80
2023/07/19 11:57:55;;;;;;;5.53;1.48;;;;;;;24.72;46.18;101299.03;5029712;28;20139;-80
2023/07/19 12:00:24;;;;;;;5.13;1.40;;;;;;;24.70;46.71;101271.97;5013544;28;20056;-79
2023/07/19 12:02:51;;;;;;;4.72;1.40;;;;;;;24.95;45.09;101282.31;5030218;28;20053;-82
2023/07/19 12:05:19;;;;;;;3.63;1.40;;;;;;;24.98;44.89;101296.00;5029939;28;20036;-80
2023/07/19 12:07:45;;;;;;;4.70;1.45;;;;;;;24.85;45.01;101285.19;5013209;28;20037;-84